Time;durP1;ratioP1;P1;durP2;ratioP2;P2;SDS_P1;SDS_P2;PMS_P1;PMS_P2;Temp;Humidity;BMP_temperature;BMP_pressure;BME280_temperature;BME280_humidity;BME280_pressure;Samples;Min_cycle;Max_cycle;Signal;HPM_P1;HPM_P2
2022/06/30 00:01:31;;;;;;;6.72;2.83;;;20.00;99.90;;;;;;4992649;28;20037;-69
2022/06/30 00:03:56;;;;;;;4.35;3.30;;;19.90;99.90;;;;;;4991939;28;20046;-69
2022/06/30 00:06:22;;;;;;;3.97;3.45;;;19.90;99.90;;;;;;4992892;28;20050;-70
2022/06/30 00:08:48;;;;;;;4.18;3.55;;;19.90;99.90;;;;;;4994170;28;20683;-69
2022/06/30 00:11:14;;;;;;;4.57;4.03;;;19.90;99.90;;;;;;4991944;28;20409;-69
2022/06/30 00:13:41;;;;;;;4.40;4.00;;;19.90;99.90;;;;;;4991177;28;20049;-69
2022/06/30 00:16:07;;;;;;;5.80;4.03;;;19.80;99.90;;;;;;4992255;28;20078;-69
2022/06/30 00:18:33;;;;;;;4.25;3.85;;;19.80;99.90;;;;;;4974088;28;20042;-70
2022/06/30 00:20:59;;;;;;;4.72;4.32;;;19.80;99.90;;;;;;4991965;28;20272;-69
2022/06/30 00:23:25;;;;;;;4.50;4.15;;;19.80;99.90;;;;;;4991850;28;20042;-70
2022/06/30 00:25:51;;;;;;;4.70;4.30;;;19.70;99.90;;;;;;4990311;28;20046;-70
2022/06/30 00:28:19;;;;;;;5.65;4.05;;;19.70;99.90;;;;;;4973155;28;20085;-69
2022/06/30 00:30:49;;;;;;;4.50;4.10;;;19.60;99.90;;;;;;4991796;28;20041;-69
2022/06/30 00:33:15;;;;;;;4.85;4.38;;;19.60;99.90;;;;;;4973583;28;20959;-69
2022/06/30 00:35:41;;;;;;;4.43;4.03;;;19.50;99.90;;;;;;4992288;28;20077;-69
2022/06/30 00:38:07;;;;;;;5.75;4.32;;;19.50;99.90;;;;;;4973978;28;20094;-69
2022/06/30 00:40:42;;;;;;;4.60;4.03;;;19.40;99.90;;;;;;4991674;28;20046;-69
2022/06/30 00:43:08;;;;;;;5.32;4.40;;;19.40;99.90;;;;;;4972986;28;20088;-69
2022/06/30 00:45:40;;;;;;;6.50;4.38;;;19.40;99.90;;;;;;4975432;28;20046;-69
2022/06/30 00:48:06;;;;;;;4.65;4.20;;;19.30;99.90;;;;;;4973732;28;20050;-69
2022/06/30 00:50:31;;;;;;;5.65;4.15;;;19.30;99.90;;;;;;4975118;28;20045;-69
2022/06/30 00:53:01;;;;;;;4.82;4.43;;;19.20;99.90;;;;;;4991224;28;20042;-69
2022/06/30 00:55:27;;;;;;;5.15;4.05;;;19.20;99.90;;;;;;4973089;28;20459;-69
2022/06/30 00:57:56;;;;;;;4.57;4.18;;;19.20;99.90;;;;;;4956771;28;20049;-69
2022/06/30 01:00:23;;;;;;;5.57;4.45;;;19.10;99.90;;;;;;4964911;28;20051;-69
2022/06/30 01:02:51;;;;;;;5.55;3.75;;;19.10;99.90;;;;;;4990323;28;20046;-69
2022/06/30 01:05:18;;;;;;;5.32;4.13;;;19.10;99.90;;;;;;4987068;28;20046;-69
2022/06/30 01:07:44;;;;;;;4.85;3.80;;;19.00;99.90;;;;;;4974817;28;20129;-69
2022/06/30 01:12:55;;;;;;;5.13;4.53;;;18.90;99.90;;;;;;4989622;28;20401;-69
2022/06/30 01:15:21;;;;;;;4.38;3.67;;;18.90;99.90;;;;;;4958612;28;20592;-70
2022/06/30 01:17:49;;;;;;;4.63;3.85;;;18.80;99.90;;;;;;4974181;28;20053;-69
2022/06/30 01:20:16;;;;;;;5.22;3.80;;;18.80;99.90;;;;;;4973482;28;20085;-69
2022/06/30 01:22:42;;;;;;;6.63;5.20;;;18.80;99.90;;;;;;4987882;28;20085;-69
2022/06/30 01:25:09;;;;;;;5.60;4.05;;;18.70;99.90;;;;;;4993280;28;20426;-69
2022/06/30 01:27:36;;;;;;;4.25;3.85;;;18.70;99.90;;;;;;4989775;28;20117;-69
2022/06/30 01:30:03;;;;;;;7.20;3.42;;;18.70;99.90;;;;;;4994987;28;20042;-69
2022/06/30 01:32:29;;;;;;;4.60;4.15;;;18.60;99.90;;;;;;4972660;28;20038;-69
2022/06/30 01:34:56;;;;;;;4.07;3.67;;;18.60;99.90;;;;;;4992169;28;20057;-69
2022/06/30 01:37:23;;;;;;;4.45;3.85;;;18.50;99.90;;;;;;4979941;28;20100;-69
2022/06/30 01:39:48;;;;;;;5.22;3.80;;;18.50;99.90;;;;;;4995303;28;20046;-69
2022/06/30 01:42:14;;;;;;;6.18;4.20;;;18.50;99.90;;;;;;4993914;28;20616;-69
2022/06/30 01:44:40;;;;;;;5.60;3.80;;;18.40;99.90;;;;;;4986822;28;20056;-69
2022/06/30 01:47:05;;;;;;;4.30;3.80;;;18.40;99.90;;;;;;4994360;28;20430;-69
2022/06/30 01:49:31;;;;;;;4.13;3.63;;;18.40;99.90;;;;;;4995055;28;20042;-69
2022/06/30 01:51:57;;;;;;;6.30;4.10;;;18.30;99.90;;;;;;4996477;28;20414;-69
2022/06/30 01:54:23;;;;;;;5.20;4.35;;;18.30;99.90;;;;;;4979955;28;20042;-69
2022/06/30 01:56:49;;;;;;;4.55;3.65;;;18.30;99.90;;;;;;4999897;28;20470;-70
2022/06/30 01:59:15;;;;;;;6.15;3.90;;;18.30;99.90;;;;;;4976858;28;20062;-69
2022/06/30 02:01:40;;;;;;;4.65;4.00;;;18.20;99.90;;;;;;4976796;28;20042;-69
2022/06/30 02:06:51;;;;;;;4.78;3.58;;;18.20;99.90;;;;;;4976243;28;20056;-69
2022/06/30 02:09:18;;;;;;;5.15;3.95;;;18.10;99.90;;;;;;4961003;28;20074;-69
2022/06/30 02:11:44;;;;;;;4.20;3.80;;;18.10;99.90;;;;;;4994242;28;20403;-69
2022/06/30 02:14:10;;;;;;;4.30;3.90;;;18.10;99.90;;;;;;4975884;28;20038;-69
2022/06/30 02:16:36;;;;;;;4.55;4.00;;;18.10;99.90;;;;;;4979598;28;20038;-69
2022/06/30 02:19:02;;;;;;;5.88;5.13;;;18.00;99.90;;;;;;4993875;28;20483;-69
2022/06/30 02:21:28;;;;;;;4.57;4.15;;;18.00;99.90;;;;;;4996406;28;20117;-69
2022/06/30 02:23:53;;;;;;;4.20;3.75;;;18.00;99.90;;;;;;4993831;28;20129;-69
2022/06/30 02:26:19;;;;;;;4.75;3.95;;;18.00;99.90;;;;;;4994555;28;20125;-69
2022/06/30 02:28:45;;;;;;;6.05;4.20;;;18.00;99.90;;;;;;4993269;28;20481;-69
2022/06/30 02:31:14;;;;;;;6.32;4.22;;;17.90;99.90;;;;;;4982996;28;20042;-69
2022/06/30 02:33:40;;;;;;;4.13;3.72;;;17.90;99.90;;;;;;4964957;28;20111;-69
2022/06/30 02:36:06;;;;;;;4.50;4.10;;;17.90;99.90;;;;;;4975908;28;20134;-69
2022/06/30 02:38:32;;;;;;;4.43;4.03;;;17.80;99.90;;;;;;4976075;28;20483;-69
2022/06/30 02:40:58;;;;;;;5.68;4.22;;;17.80;99.90;;;;;;4993605;28;20096;-69
2022/06/30 02:43:24;;;;;;;5.78;3.97;;;17.80;99.90;;;;;;4974969;28;20482;-69
2022/06/30 02:45:49;;;;;;;5.63;4.30;;;17.80;99.90;;;;;;4996134;28;20583;-69
2022/06/30 02:48:16;;;;;;;5.22;4.28;;;17.80;99.90;;;;;;4993538;28;20482;-69
2022/06/30 02:50:44;;;;;;;5.80;4.18;;;17.80;99.90;;;;;;4993545;28;20522;-69
2022/06/30 02:53:11;;;;;;;10.40;5.10;;;17.70;99.90;;;;;;4975897;28;20113;-69
2022/06/30 02:55:36;;;;;;;5.35;4.45;;;17.70;99.90;;;;;;4995192;28;20125;-69
2022/06/30 02:58:02;;;;;;;5.63;4.47;;;17.70;99.90;;;;;;4992711;28;20121;-69
2022/06/30 03:00:28;;;;;;;4.80;4.30;;;17.60;99.90;;;;;;4994296;28;20045;-69
2022/06/30 03:02:54;;;;;;;5.80;4.13;;;17.60;99.90;;;;;;4992842;28;20049;-69
2022/06/30 03:05:20;;;;;;;5.38;4.30;;;17.60;99.90;;;;;;4995989;28;20455;-69
2022/06/30 03:07:46;;;;;;;5.72;4.20;;;17.60;99.90;;;;;;4993361;28;20045;-69
2022/06/30 03:10:11;;;;;;;4.57;3.90;;;17.50;99.90;;;;;;4992965;28;20556;-69
2022/06/30 03:12:38;;;;;;;9.68;4.57;;;17.50;99.90;;;;;;4995222;28;20389;-69
2022/06/30 03:15:04;;;;;;;4.90;4.28;;;17.50;99.90;;;;;;4994512;28;20046;-69
2022/06/30 03:17:30;;;;;;;4.60;4.20;;;17.50;99.90;;;;;;4992922;28;20164;-69
2022/06/30 03:19:55;;;;;;;4.47;3.88;;;17.40;99.90;;;;;;4993946;28;20113;-69
2022/06/30 03:22:21;;;;;;;4.85;4.38;;;17.40;99.90;;;;;;4992967;28;20043;-69
2022/06/30 03:24:47;;;;;;;6.07;4.10;;;17.40;99.90;;;;;;4978680;28;20038;-69
2022/06/30 03:27:12;;;;;;;4.93;4.00;;;17.40;99.90;;;;;;4974590;28;20108;-69
2022/06/30 03:29:38;;;;;;;4.68;4.10;;;17.40;99.90;;;;;;4993673;28;20042;-69
2022/06/30 03:32:04;;;;;;;4.53;4.13;;;17.30;99.90;;;;;;4993775;28;20355;-69
2022/06/30 03:34:30;;;;;;;6.78;4.28;;;17.30;99.90;;;;;;4976906;28;20041;-69
2022/06/30 03:36:55;;;;;;;5.85;4.75;;;17.30;99.90;;;;;;4953857;28;20046;-69
2022/06/30 03:39:21;;;;;;;4.53;3.63;;;17.30;99.90;;;;;;4992826;28;20061;-69
2022/06/30 03:41:47;;;;;;;6.13;4.35;;;17.30;99.90;;;;;;4991613;28;20034;-69
2022/06/30 03:44:12;;;;;;;5.93;4.15;;;17.30;99.90;;;;;;4974596;28;20045;-69
2022/06/30 03:46:38;;;;;;;5.28;4.10;;;17.30;99.90;;;;;;4998302;28;20073;-69
2022/06/30 03:49:04;;;;;;;5.53;4.20;;;17.20;99.90;;;;;;4992883;28;20480;-69
2022/06/30 03:51:29;;;;;;;6.85;4.95;;;17.30;99.90;;;;;;4974665;28;20097;-69
2022/06/30 03:53:56;;;;;;;4.70;3.75;;;17.30;99.90;;;;;;4995657;28;20430;-69
2022/06/30 03:56:23;;;;;;;4.75;4.20;;;17.30;99.90;;;;;;4977757;28;20042;-69
2022/06/30 03:58:48;;;;;;;8.05;3.95;;;17.30;99.90;;;;;;4944208;28;20058;-69
2022/06/30 04:01:14;;;;;;;4.32;3.92;;;17.30;99.90;;;;;;4974898;28;20050;-69
2022/06/30 04:03:39;;;;;;;4.13;3.47;;;17.40;99.90;;;;;;4962435;28;20137;-69
2022/06/30 04:06:05;;;;;;;3.92;3.47;;;17.40;99.90;;;;;;4974607;28;20085;-69
2022/06/30 04:08:31;;;;;;;5.38;3.75;;;17.40;99.90;;;;;;4991769;28;20065;-69
2022/06/30 04:10:56;;;;;;;4.40;3.70;;;17.50;99.90;;;;;;4992182;28;20042;-69
2022/06/30 04:13:22;;;;;;;7.60;4.30;;;17.50;99.90;;;;;;4990395;28;20042;-69
2022/06/30 04:15:48;;;;;;;5.30;3.88;;;17.50;99.90;;;;;;4973108;28;20031;-69
2022/06/30 04:18:13;;;;;;;5.32;4.45;;;17.60;99.90;;;;;;4991752;28;20046;-69
2022/06/30 04:20:39;;;;;;;4.57;4.03;;;17.60;99.90;;;;;;4975072;28;20042;-70
2022/06/30 04:23:05;;;;;;;7.28;3.95;;;17.60;99.90;;;;;;4973688;28;20065;-69
2022/06/30 04:25:31;;;;;;;7.30;4.35;;;17.60;99.90;;;;;;4992858;28;20414;-69
2022/06/30 04:27:58;;;;;;;5.32;4.28;;;17.70;99.90;;;;;;4972504;28;20151;-69
2022/06/30 04:33:08;;;;;;;;;;;17.80;99.90;;;;;;4974365;28;20455;-69
2022/06/30 04:35:35;;;;;;;5.03;4.47;;;17.80;99.90;;;;;;4973119;28;19957;-69
2022/06/30 04:38:02;;;;;;;5.30;4.47;;;17.80;99.90;;;;;;4989673;28;20039;-69
2022/06/30 04:43:12;;;;;;;6.82;4.63;;;18.00;99.90;;;;;;4991805;28;20104;-69
2022/06/30 04:45:37;;;;;;;7.75;4.90;;;18.10;99.90;;;;;;4996150;28;20432;-69
2022/06/30 04:48:04;;;;;;;5.22;4.30;;;18.20;99.90;;;;;;4992834;28;20461;-69
2022/06/30 04:50:29;;;;;;;6.13;4.20;;;18.20;99.90;;;;;;4975412;28;20096;-69
2022/06/30 04:52:55;;;;;;;5.68;4.25;;;18.30;99.90;;;;;;4991380;28;20042;-69
2022/06/30 04:55:21;;;;;;;4.72;4.30;;;18.40;99.90;;;;;;4993365;28;20030;-68
2022/06/30 04:57:47;;;;;;;5.22;3.92;;;18.50;99.90;;;;;;4989961;28;20370;-69
2022/06/30 05:00:13;;;;;;;5.07;4.53;;;18.50;99.90;;;;;;4994188;28;20390;-69
2022/06/30 05:02:39;;;;;;;4.65;4.10;;;18.70;99.90;;;;;;4989543;28;20342;-69
2022/06/30 05:05:05;;;;;;;7.00;4.25;;;19.00;99.90;;;;;;4963363;28;20108;-69
2022/06/30 05:07:31;;;;;;;6.88;4.47;;;19.40;99.90;;;;;;4990707;28;20046;-69
2022/06/30 05:09:56;;;;;;;5.35;3.83;;;19.60;99.90;;;;;;4970974;28;20385;-69
2022/06/30 05:12:22;;;;;;;6.05;4.07;;;19.70;99.90;;;;;;4959360;28;20062;-70
2022/06/30 05:14:48;;;;;;;7.40;4.13;;;19.70;99.90;;;;;;4973356;28;20052;-70
2022/06/30 05:17:14;;;;;;;6.38;4.15;;;19.80;99.90;;;;;;4957841;28;20054;-69
2022/06/30 05:19:40;;;;;;;5.53;4.10;;;20.00;99.90;;;;;;4991097;28;20039;-70
2022/06/30 05:22:06;;;;;;;7.40;4.55;;;20.00;99.90;;;;;;4972983;28;20603;-69
2022/06/30 05:27:16;;;;;;;5.68;4.40;;;19.90;99.90;;;;;;4973963;28;20129;-69
2022/06/30 05:29:42;;;;;;;5.32;4.82;;;19.90;99.90;;;;;;4974679;28;20197;-69
2022/06/30 05:32:08;;;;;;;4.82;4.32;;;19.90;99.90;;;;;;4974732;28;20386;-69
2022/06/30 05:34:34;;;;;;;6.38;4.75;;;19.90;99.90;;;;;;4975516;28;20172;-69
2022/06/30 05:37:01;;;;;;;5.68;5.10;;;19.90;99.90;;;;;;4969994;28;20666;-69
2022/06/30 05:39:26;;;;;;;6.28;4.38;;;19.90;99.90;;;;;;4976855;28;20108;-69
2022/06/30 05:41:52;;;;;;;6.88;4.95;;;19.90;99.90;;;;;;4974694;28;20047;-69
2022/06/30 05:44:18;;;;;;;7.40;5.25;;;19.90;99.90;;;;;;4974118;28;20365;-69
2022/06/30 05:46:43;;;;;;;6.82;5.22;;;19.90;99.90;;;;;;4972584;28;20053;-69
2022/06/30 05:49:09;;;;;;;6.40;5.05;;;20.00;99.90;;;;;;4973844;28;20086;-69
2022/06/30 05:51:35;;;;;;;7.38;5.15;;;20.00;99.90;;;;;;4995027;28;20048;-69
2022/06/30 05:54:02;;;;;;;6.43;4.93;;;20.10;99.90;;;;;;4990574;28;20664;-69
2022/06/30 05:56:28;;;;;;;7.45;4.90;;;20.20;99.90;;;;;;4977959;28;20069;-69
2022/06/30 05:58:53;;;;;;;8.25;5.25;;;20.30;99.90;;;;;;4991027;28;20042;-69
2022/06/30 06:01:19;;;;;;;7.75;4.90;;;20.30;99.90;;;;;;4990753;28;20054;-69
2022/06/30 06:03:45;;;;;;;7.47;4.82;;;20.40;99.90;;;;;;4971682;28;20065;-69
2022/06/30 06:06:10;;;;;;;5.85;5.03;;;20.40;99.90;;;;;;4976667;28;20058;-69
2022/06/30 06:08:36;;;;;;;5.68;5.07;;;20.50;99.90;;;;;;4991597;28;20064;-69
2022/06/30 06:11:02;;;;;;;5.78;5.20;;;20.60;99.90;;;;;;4974269;28;20053;-69
2022/06/30 06:13:28;;;;;;;7.00;5.40;;;20.60;99.90;;;;;;4992212;28;20113;-69
2022/06/30 06:15:53;;;;;;;5.68;5.15;;;20.60;99.90;;;;;;4971968;28;20045;-69
2022/06/30 06:18:19;;;;;;;7.20;4.80;;;20.70;99.90;;;;;;4973149;28;20042;-69
2022/06/30 06:20:45;;;;;;;6.55;5.32;;;20.80;99.90;;;;;;4991299;28;20394;-69
2022/06/30 06:23:11;;;;;;;5.72;5.22;;;20.90;99.90;;;;;;4993159;28;20046;-69
2022/06/30 06:25:36;;;;;;;5.78;5.13;;;21.00;99.90;;;;;;4995706;28;20544;-69
2022/06/30 06:30:46;;;;;;;6.90;5.82;;;21.10;99.90;;;;;;4994246;28;20054;-69
2022/06/30 06:33:12;;;;;;;8.00;5.00;;;21.20;99.90;;;;;;4976203;28;20050;-69
2022/06/30 06:35:37;;;;;;;8.75;5.85;;;21.40;99.90;;;;;;4975846;28;20054;-69
2022/06/30 06:38:03;;;;;;;6.32;5.68;;;21.40;99.90;;;;;;4976317;28;20042;-69
2022/06/30 06:40:29;;;;;;;5.90;5.30;;;21.50;99.90;;;;;;4994057;28;20069;-69
2022/06/30 06:42:55;;;;;;;6.03;5.10;;;21.60;99.90;;;;;;4963430;28;20054;-69
2022/06/30 06:45:20;;;;;;;7.22;5.70;;;21.70;99.90;;;;;;4976627;28;20077;-69
2022/06/30 06:47:48;;;;;;;6.55;5.85;;;21.80;99.90;;;;;;4993625;28;20056;-69
2022/06/30 06:50:14;;;;;;;7.25;5.13;;;21.90;99.90;;;;;;4976389;28;20170;-69
2022/06/30 06:52:39;;;;;;;6.45;5.45;;;22.00;99.90;;;;;;4993137;28;20038;-69
2022/06/30 06:55:06;;;;;;;7.68;5.97;;;22.10;99.90;;;;;;4993756;28;20042;-69
2022/06/30 06:57:34;;;;;;;7.97;6.10;;;22.30;99.90;;;;;;4975162;28;20042;-69
2022/06/30 07:00:00;;;;;;;6.53;5.82;;;22.30;99.90;;;;;;4993476;28;20046;-69
2022/06/30 07:02:25;;;;;;;6.93;6.22;;;22.40;99.90;;;;;;4993086;28;20052;-70
2022/06/30 07:04:51;;;;;;;6.57;5.80;;;22.50;99.90;;;;;;4976048;28;20078;-70
2022/06/30 07:07:17;;;;;;;6.07;5.55;;;22.60;99.90;;;;;;4993609;28;20135;-69
2022/06/30 07:09:42;;;;;;;6.78;6.15;;;22.60;99.90;;;;;;4975669;28;20046;-69
2022/06/30 07:12:08;;;;;;;6.82;5.70;;;22.80;99.90;;;;;;4974597;28;20058;-69
2022/06/30 07:14:34;;;;;;;7.10;6.07;;;22.90;99.90;;;;;;4985708;28;20073;-69
2022/06/30 07:16:59;;;;;;;9.82;7.13;;;23.10;99.90;;;;;;4993466;28;20062;-69
2022/06/30 07:19:25;;;;;;;6.57;6.00;;;23.10;99.90;;;;;;4993586;28;20042;-69
2022/06/30 07:21:51;;;;;;;6.70;5.95;;;23.30;99.90;;;;;;4975875;28;20425;-69
2022/06/30 07:24:16;;;;;;;7.43;6.65;;;23.30;99.90;;;;;;4993451;28;20046;-69
2022/06/30 07:26:42;;;;;;;7.55;6.55;;;23.40;99.90;;;;;;4970169;28;20054;-70
2022/06/30 07:29:08;;;;;;;10.52;8.13;;;23.40;99.90;;;;;;4975130;28;20054;-70
2022/06/30 07:31:33;;;;;;;7.25;6.57;;;23.50;99.90;;;;;;4975652;28;20363;-70
2022/06/30 07:33:59;;;;;;;7.40;6.65;;;23.50;99.90;;;;;;4974295;28;20042;-69
2022/06/30 07:36:25;;;;;;;8.52;7.38;;;23.60;99.90;;;;;;4993092;28;20038;-69
2022/06/30 07:38:51;;;;;;;8.80;6.68;;;23.60;99.90;;;;;;4972029;28;20065;-69
2022/06/30 07:41:17;;;;;;;10.43;6.65;;;23.70;99.90;;;;;;4973698;28;20467;-69
2022/06/30 07:43:43;;;;;;;7.07;6.43;;;23.80;99.90;;;;;;4971069;28;20050;-69
2022/06/30 07:46:09;;;;;;;8.50;7.28;;;23.80;99.90;;;;;;4971680;28;20078;-69
2022/06/30 07:48:35;;;;;;;7.97;7.28;;;23.90;99.90;;;;;;4973442;28;20053;-69
2022/06/30 07:51:01;;;;;;;8.13;7.25;;;24.00;99.90;;;;;;4971701;28;20047;-69
2022/06/30 07:53:26;;;;;;;8.25;7.45;;;24.10;99.90;;;;;;4954717;28;20077;-69
2022/06/30 07:55:52;;;;;;;8.25;7.05;;;24.20;99.90;;;;;;4973112;28;20758;-70
2022/06/30 07:58:18;;;;;;;12.15;7.20;;;24.20;99.90;;;;;;4970902;28;20043;-70
2022/06/30 08:00:43;;;;;;;8.85;8.05;;;24.30;99.90;;;;;;4973451;28;20497;-70
2022/06/30 08:03:10;;;;;;;7.78;7.07;;;24.60;99.90;;;;;;4971111;28;20062;-70
2022/06/30 08:05:36;;;;;;;8.43;7.68;;;24.60;99.90;;;;;;4971427;28;20055;-70
2022/06/30 08:08:01;;;;;;;9.68;8.00;;;24.80;99.90;;;;;;4971692;28;20050;-70
2022/06/30 08:10:27;;;;;;;8.15;7.50;;;24.90;99.90;;;;;;4972449;28;20082;-70
2022/06/30 08:12:53;;;;;;;8.85;7.95;;;25.10;99.90;;;;;;4972060;28;20061;-70
2022/06/30 08:15:18;;;;;;;9.20;8.18;;;25.20;99.90;;;;;;4971607;28;20039;-70
2022/06/30 08:17:44;;;;;;;9.57;8.55;;;25.40;99.90;;;;;;4957994;28;20130;-70
2022/06/30 08:20:10;;;;;;;8.98;8.07;;;25.50;99.90;;;;;;4971407;28;20081;-70
2022/06/30 08:22:36;;;;;;;11.80;8.20;;;25.60;99.90;;;;;;4971611;28;20725;-70
2022/06/30 08:25:02;;;;;;;10.23;8.38;;;26.00;99.90;;;;;;4971158;28;20039;-70
2022/06/30 08:27:28;;;;;;;8.63;7.63;;;26.40;99.90;;;;;;4973747;28;20382;-70
2022/06/30 08:29:54;;;;;;;8.18;7.32;;;26.90;99.90;;;;;;4972635;28;20054;-70
2022/06/30 08:32:19;;;;;;;8.48;7.78;;;27.20;98.20;;;;;;4973615;28;20043;-70
2022/06/30 08:34:45;;;;;;;9.18;8.27;;;27.40;97.90;;;;;;4972738;28;20045;-70
2022/06/30 08:37:11;;;;;;;7.57;6.97;;;27.80;96.50;;;;;;4972303;28;20443;-70
2022/06/30 08:42:21;;;;;;;10.55;8.45;;;28.50;95.80;;;;;;4973327;28;20046;-70
2022/06/30 08:47:32;;;;;;;7.65;6.95;;;29.00;93.50;;;;;;4991760;28;20516;-70
2022/06/30 08:49:58;;;;;;;7.38;6.68;;;29.20;92.00;;;;;;4991818;28;20045;-70
2022/06/30 08:52:25;;;;;;;8.63;6.60;;;29.30;92.20;;;;;;4973793;28;20104;-70
2022/06/30 08:54:51;;;;;;;8.18;6.55;;;29.60;92.50;;;;;;4991873;28;20042;-70
2022/06/30 08:57:18;;;;;;;7.20;6.40;;;29.90;91.90;;;;;;4990338;28;20474;-70
2022/06/30 08:59:43;;;;;;;6.72;6.13;;;30.10;90.40;;;;;;4974268;28;20124;-70
2022/06/30 09:02:09;;;;;;;7.32;6.72;;;30.30;88.50;;;;;;4973325;28;20435;-70
2022/06/30 09:04:35;;;;;;;7.47;6.88;;;30.40;84.50;;;;;;4973840;28;20633;-70
2022/06/30 09:07:01;;;;;;;7.82;7.22;;;30.50;83.90;;;;;;4991037;28;20050;-70
2022/06/30 09:09:26;;;;;;;7.65;6.95;;;30.60;82.30;;;;;;4973090;28;20049;-70
2022/06/30 09:11:55;;;;;;;6.88;6.13;;;30.60;82.40;;;;;;4989231;28;20042;-70
2022/06/30 09:14:41;;;;;;;7.22;6.55;;;30.50;82.50;;;;;;4990986;28;20161;-71
2022/06/30 09:17:16;;;;;;;7.85;6.25;;;30.60;80.80;;;;;;4989509;28;20101;-71
2022/06/30 09:19:59;;;;;;;6.32;5.82;;;30.60;82.40;;;;;;4974096;28;20046;-71
2022/06/30 09:22:34;;;;;;;9.00;8.27;;;30.70;84.30;;;;;;4972578;28;20132;-71
2022/06/30 09:25:07;;;;;;;8.45;7.75;;;31.00;81.70;;;;;;4973632;28;20050;-71
2022/06/30 09:27:44;;;;;;;8.82;7.93;;;31.30;80.30;;;;;;4991550;28;20153;-71
2022/06/30 09:30:15;;;;;;;8.75;8.05;;;31.50;77.40;;;;;;4991080;28;20406;-71
2022/06/30 09:32:47;;;;;;;9.70;8.90;;;31.20;76.80;;;;;;4990554;28;20051;-71
2022/06/30 09:35:13;;;;;;;6.50;5.93;;;31.00;75.60;;;;;;4991322;28;20417;-71
2022/06/30 09:37:39;;;;;;;6.90;5.90;;;30.90;76.60;;;;;;4977349;28;20034;-71
2022/06/30 09:40:07;;;;;;;6.45;5.95;;;31.00;73.60;;;;;;4991659;28;20066;-71
2022/06/30 09:42:43;;;;;;;8.25;5.90;;;31.10;72.90;;;;;;4972740;28;20046;-71
2022/06/30 09:45:12;;;;;;;7.28;6.65;;;31.20;73.60;;;;;;4972894;28;20197;-71
2022/06/30 09:47:52;;;;;;;8.32;6.50;;;31.40;71.90;;;;;;4956572;28;20053;-71
2022/06/30 09:50:18;;;;;;;8.05;7.32;;;31.50;72.80;;;;;;4989290;28;20049;-71
2022/06/30 09:52:44;;;;;;;9.25;7.90;;;31.60;71.50;;;;;;4990545;28;20125;-71
2022/06/30 09:55:12;;;;;;;6.30;5.43;;;31.70;72.90;;;;;;4991358;28;20178;-71
2022/06/30 09:57:48;;;;;;;7.32;5.80;;;31.90;71.20;;;;;;4991512;28;20041;-71
2022/06/30 10:00:16;;;;;;;7.00;6.40;;;31.90;68.40;;;;;;4993591;28;20104;-71
2022/06/30 10:02:46;;;;;;;7.78;7.10;;;32.00;68.80;;;;;;4994263;28;20049;-71
2022/06/30 10:05:14;;;;;;;7.18;6.47;;;32.00;67.90;;;;;;4994641;28;20576;-71
2022/06/30 10:07:40;;;;;;;7.43;6.57;;;32.00;68.40;;;;;;4992780;28;20143;-71
2022/06/30 10:10:07;;;;;;;7.10;6.40;;;32.00;65.40;;;;;;4961001;28;20046;-71
2022/06/30 10:12:33;;;;;;;7.82;6.18;;;31.90;65.20;;;;;;4990686;28;20084;-71
2022/06/30 10:15:00;;;;;;;4.97;4.45;;;32.00;66.40;;;;;;4994497;28;20201;-71
2022/06/30 10:17:50;;;;;;;7.60;6.80;;;32.10;66.60;;;;;;4976578;28;20129;-71
2022/06/30 10:20:16;;;;;;;7.25;6.47;;;32.50;62.80;;;;;;4996027;28;20046;-72
2022/06/30 10:22:42;;;;;;;6.07;5.50;;;32.70;65.70;;;;;;4976503;28;20104;-72
2022/06/30 10:25:08;;;;;;;5.57;4.97;;;33.00;63.70;;;;;;4995059;28;20030;-72
2022/06/30 10:27:34;;;;;;;8.27;6.35;;;32.90;62.40;;;;;;4975437;28;20434;-70
2022/06/30 10:30:11;;;;;;;5.88;5.25;;;32.70;60.70;;;;;;4994482;28;20050;-70
2022/06/30 10:32:48;;;;;;;6.30;5.53;;;32.80;62.20;;;;;;4976119;28;20065;-70
2022/06/30 10:35:17;;;;;;;5.03;3.13;;;32.70;62.40;;;;;;4976590;28;20344;-70
2022/06/30 10:38:01;;;;;;;4.22;2.40;;;33.00;61.00;;;;;;4987304;28;20118;-70
2022/06/30 10:40:45;;;;;;;4.15;1.80;;;33.30;58.40;;;;;;4977051;28;20054;-70
2022/06/30 10:43:11;;;;;;;5.72;2.55;;;33.40;54.40;;;;;;4975285;28;20046;-70
2022/06/30 10:45:56;;;;;;;5.70;2.30;;;33.10;55.80;;;;;;4994110;28;20048;-70
2022/06/30 10:48:22;;;;;;;3.20;2.30;;;33.00;54.30;;;;;;4994024;28;20153;-70
2022/06/30 10:50:50;;;;;;;5.88;3.13;;;32.60;54.00;;;;;;4995392;28;20069;-70
2022/06/30 10:53:41;;;;;;;5.25;3.15;;;32.30;54.80;;;;;;4993414;28;20054;-70
2022/06/30 10:56:08;;;;;;;4.85;2.70;;;32.10;55.20;;;;;;4992897;28;20034;-69
2022/06/30 10:58:34;;;;;;;5.57;3.00;;;31.90;57.80;;;;;;4979494;28;20042;-69
2022/06/30 11:01:05;;;;;;;6.15;4.15;;;31.90;58.30;;;;;;4972164;28;20441;-69
2022/06/30 11:03:31;;;;;;;5.70;4.82;;;31.70;57.70;;;;;;4993892;28;20466;-69
2022/06/30 11:05:58;;;;;;;9.77;6.30;;;31.30;58.60;;;;;;4978958;28;20081;-69
2022/06/30 11:08:39;;;;;;;5.68;4.95;;;30.80;60.10;;;;;;4976120;28;20129;-69
2022/06/30 11:11:20;;;;;;;5.75;5.00;;;30.20;63.10;;;;;;4975783;28;20078;-69
2022/06/30 11:13:47;;;;;;;7.82;5.60;;;29.80;65.10;;;;;;4991233;28;20083;-68
2022/06/30 11:16:18;;;;;;;6.53;5.10;;;29.50;64.80;;;;;;4993775;28;20045;-68
2022/06/30 11:18:43;;;;;;;7.97;5.82;;;29.70;65.40;;;;;;4993523;28;20489;-68
2022/06/30 11:21:09;;;;;;;7.38;5.70;;;29.80;64.40;;;;;;4991611;28;20042;-68
2022/06/30 11:23:40;;;;;;;5.43;4.80;;;29.70;63.30;;;;;;4975832;28;20076;-68
2022/06/30 11:28:52;;;;;;;6.93;4.22;;;29.30;65.10;;;;;;4974837;28;20085;-68
2022/06/30 11:31:30;;;;;;;6.20;4.43;;;29.00;65.50;;;;;;4992827;28;20038;-68
2022/06/30 11:34:02;;;;;;;14.18;11.32;;;28.80;66.00;;;;;;4975659;28;20612;-68
2022/06/30 11:36:28;;;;;;;6.72;4.50;;;28.60;64.70;;;;;;4975507;28;20121;-68
2022/06/30 11:39:20;;;;;;;6.93;3.40;;;28.60;66.70;;;;;;4984195;28;20045;-68
2022/06/30 11:41:57;;;;;;;5.10;2.83;;;28.70;65.80;;;;;;4985456;28;20244;-68
2022/06/30 11:44:29;;;;;;;8.77;3.20;;;28.80;65.60;;;;;;4991915;28;20413;-68
2022/06/30 11:46:58;;;;;;;4.43;2.70;;;29.00;66.90;;;;;;4992759;28;20129;-68
2022/06/30 11:49:40;;;;;;;5.47;2.30;;;29.50;64.90;;;;;;4996027;28;20042;-68
2022/06/30 11:52:15;;;;;;;6.75;2.50;;;30.10;60.70;;;;;;4992575;28;20050;-68
2022/06/30 11:54:55;;;;;;;4.85;3.60;;;30.80;59.80;;;;;;4975729;28;20046;-68
2022/06/30 11:57:23;;;;;;;6.90;4.00;;;31.50;58.90;;;;;;4991377;28;20034;-68
2022/06/30 11:59:52;;;;;;;7.00;3.28;;;31.90;59.10;;;;;;4975359;28;20057;-68
2022/06/30 12:02:19;;;;;;;5.57;3.38;;;32.20;58.90;;;;;;4984579;28;20094;-68
2022/06/30 12:04:49;;;;;;;3.42;2.30;;;32.60;55.60;;;;;;4994933;28;20049;-68
2022/06/30 12:07:16;;;;;;;5.00;2.30;;;32.80;53.40;;;;;;4974453;28;20042;-68
2022/06/30 12:09:44;;;;;;;4.55;1.90;;;32.80;53.30;;;;;;4992642;28;20054;-69
2022/06/30 12:12:11;;;;;;;5.07;1.65;;;32.80;52.40;;;;;;4975156;28;20042;-67
2022/06/30 12:14:39;;;;;;;3.97;1.75;;;32.80;52.10;;;;;;4985782;28;20372;-68
2022/06/30 12:17:10;;;;;;;7.07;1.95;;;32.90;52.00;;;;;;4977740;28;20524;-68
2022/06/30 12:19:36;;;;;;;4.70;1.95;;;33.00;52.00;;;;;;4991393;28;20049;-68
2022/06/30 12:22:04;;;;;;;4.32;1.65;;;33.10;51.80;;;;;;4990382;28;20144;-70
2022/06/30 12:24:33;;;;;;;5.13;1.63;;;33.10;52.00;;;;;;4991298;28;20443;-66
2022/06/30 12:26:59;;;;;;;4.70;1.60;;;33.00;53.20;;;;;;4992518;28;20490;-66
2022/06/30 12:29:27;;;;;;;5.50;2.15;;;33.10;51.80;;;;;;4991257;28;20602;-68
2022/06/30 12:32:10;;;;;;;5.88;1.80;;;33.10;50.10;;;;;;4989514;28;20124;-68
2022/06/30 12:34:51;;;;;;;4.20;1.95;;;33.00;51.90;;;;;;4990992;28;20204;-67
2022/06/30 12:37:36;;;;;;;4.68;1.70;;;32.80;51.10;;;;;;4974094;28;20509;-67
2022/06/30 12:40:08;;;;;;;4.85;2.10;;;32.70;51.20;;;;;;4973866;28;20057;-67
2022/06/30 12:42:41;;;;;;;4.57;2.70;;;32.50;52.10;;;;;;4986985;28;20046;-68
2022/06/30 12:45:48;;;;;;;5.32;2.53;;;32.30;53.10;;;;;;4973764;28;20541;-67
2022/06/30 12:48:35;;;;;;;3.10;2.00;;;32.10;53.40;;;;;;4989722;28;20154;-67
2022/06/30 12:51:01;;;;;;;4.35;2.25;;;31.80;54.30;;;;;;4990556;28;20042;-68
2022/06/30 12:53:27;;;;;;;3.42;2.40;;;31.60;52.80;;;;;;4988820;28;20128;-67
2022/06/30 12:56:17;;;;;;;6.10;2.38;;;31.40;53.80;;;;;;4989708;28;20040;-68
2022/06/30 12:58:49;;;;;;;5.20;2.42;;;31.40;55.50;;;;;;4953093;28;20442;-68
2022/06/30 13:01:26;;;;;;;7.05;3.95;;;31.40;55.40;;;;;;4973724;28;20173;-66
2022/06/30 13:04:03;;;;;;;5.47;3.72;;;31.40;56.60;;;;;;4992883;28;20034;-66
2022/06/30 13:06:32;;;;;;;5.40;3.60;;;31.30;57.30;;;;;;4986913;28;20042;-65
2022/06/30 13:09:03;;;;;;;63.30;56.35;;;31.20;58.20;;;;;;4982476;28;20050;-68
2022/06/30 13:11:31;;;;;;;6.10;3.67;;;31.10;58.40;;;;;;4957281;28;20065;-67
2022/06/30 13:13:58;;;;;;;4.25;3.83;;;31.00;58.60;;;;;;4990560;28;20043;-67